Time;durP1;ratioP1;P1;durP2;ratioP2;P2;SDS_P1;SDS_P2;PMS_P1;PMS_P2;Temp;Humidity;BMP_temperature;BMP_pressure;BME280_temperature;BME280_humidity;BME280_pressure;Samples;Min_cycle;Max_cycle;Signal;HPM_P1;HPM_P2
2022/05/17 00:00:23;;;;;;;5.63;3.10;;;10.80;99.90;;;;;;4195037;28;20187;-71
2022/05/17 00:02:23;;;;;;;5.93;3.00;;;10.80;99.90;;;;;;4194904;28;20206;-71
2022/05/17 00:04:24;;;;;;;4.07;3.03;;;10.80;99.90;;;;;;4194901;28;20185;-71
2022/05/17 00:06:26;;;;;;;7.33;3.57;;;10.80;99.90;;;;;;4194291;28;20662;-71
2022/05/17 00:08:26;;;;;;;5.30;3.27;;;10.70;99.90;;;;;;4194913;28;20646;-71
2022/05/17 00:10:27;;;;;;;3.77;3.10;;;10.70;99.90;;;;;;4194879;28;20208;-70
2022/05/17 00:12:28;;;;;;;6.20;3.03;;;10.60;99.90;;;;;;4194982;28;20183;-71
2022/05/17 00:14:28;;;;;;;4.43;3.27;;;10.60;99.90;;;;;;4194964;28;20218;-71
2022/05/17 00:16:29;;;;;;;5.93;3.37;;;10.70;99.90;;;;;;4194316;28;20186;-71
2022/05/17 00:18:30;;;;;;;7.43;3.80;;;10.60;99.90;;;;;;4194554;28;20205;-71
2022/05/17 00:20:31;;;;;;;3.60;2.67;;;10.60;99.90;;;;;;4194468;28;20195;-71
2022/05/17 00:22:31;;;;;;;5.03;3.30;;;10.60;99.90;;;;;;4195022;28;20184;-71
2022/05/17 00:24:32;;;;;;;6.00;3.00;;;10.60;99.90;;;;;;4194667;28;20178;-71
2022/05/17 00:26:33;;;;;;;7.33;3.53;;;10.50;99.90;;;;;;4194382;28;20187;-71
2022/05/17 00:28:36;;;;;;;5.90;3.20;;;10.50;99.90;;;;;;4196476;28;20175;-70
2022/05/17 00:30:37;;;;;;;4.13;3.50;;;10.40;99.90;;;;;;4198258;28;20769;-71
2022/05/17 00:32:37;;;;;;;5.23;3.37;;;10.40;99.90;;;;;;4198322;28;20195;-71
2022/05/17 00:34:38;;;;;;;4.53;2.80;;;10.40;99.90;;;;;;4198085;28;20616;-71
2022/05/17 00:36:39;;;;;;;4.70;2.93;;;10.50;99.90;;;;;;4197422;28;20171;-70
2022/05/17 00:38:39;;;;;;;7.27;3.83;;;10.40;99.90;;;;;;4197852;28;20193;-71
2022/05/17 00:40:40;;;;;;;5.30;3.50;;;10.40;99.90;;;;;;4198263;28;20182;-71
2022/05/17 00:42:41;;;;;;;6.37;3.37;;;10.40;99.90;;;;;;4198131;28;20176;-70
2022/05/17 00:44:44;;;;;;;4.37;3.13;;;10.30;99.90;;;;;;4197703;28;20694;-70
2022/05/17 00:46:59;;;;;;;4.47;2.70;;;10.30;99.90;;;;;;4197470;28;20190;-71
2022/05/17 00:49:01;;;;;;;5.67;3.50;;;10.30;99.90;;;;;;4197651;28;20221;-70
2022/05/17 00:51:03;;;;;;;7.63;3.90;;;10.30;99.90;;;;;;4197811;28;20343;-70
2022/05/17 00:53:07;;;;;;;5.60;3.50;;;10.30;99.90;;;;;;4197771;28;20182;-71
2022/05/17 00:55:32;;;;;;;7.57;3.83;;;10.30;99.90;;;;;;4197687;28;20414;-70
2022/05/17 00:57:56;;;;;;;5.90;3.17;;;10.30;99.90;;;;;;4197716;28;20215;-70
2022/05/17 01:00:00;;;;;;;4.47;3.17;;;10.30;99.90;;;;;;4197618;28;20192;-70
2022/05/17 01:02:01;;;;;;;5.70;3.97;;;10.30;99.90;;;;;;4197823;28;20199;-70
2022/05/17 01:04:18;;;;;;;7.63;3.43;;;10.30;99.90;;;;;;4197404;28;20182;-70
2022/05/17 01:06:19;;;;;;;5.53;3.33;;;10.30;99.90;;;;;;4196956;28;20194;-70
2022/05/17 01:08:21;;;;;;;6.83;3.73;;;10.20;99.90;;;;;;4197449;28;20182;-70
2022/05/17 01:10:24;;;;;;;6.07;3.43;;;10.20;99.90;;;;;;4197366;28;20181;-70
2022/05/17 01:12:25;;;;;;;5.63;3.77;;;10.20;99.90;;;;;;4197566;28;20302;-70
2022/05/17 01:16:45;;;;;;;3.90;3.27;;;10.20;99.90;;;;;;4196736;28;20170;-70
2022/05/17 01:18:45;;;;;;;4.87;3.33;;;10.10;99.90;;;;;;4197305;28;20752;-70
2022/05/17 01:20:46;;;;;;;6.73;3.37;;;10.10;99.90;;;;;;4196744;28;20202;-70
2022/05/17 01:22:46;;;;;;;4.17;3.30;;;10.10;99.90;;;;;;4196327;28;20187;-70
2022/05/17 01:24:48;;;;;;;5.40;3.50;;;10.10;99.90;;;;;;4196228;28;20274;-70
2022/05/17 01:26:55;;;;;;;4.70;3.20;;;10.10;99.90;;;;;;4195582;28;20294;-69
2022/05/17 01:28:55;;;;;;;5.73;3.67;;;10.10;99.90;;;;;;4196362;28;20543;-70
2022/05/17 01:31:03;;;;;;;6.83;3.03;;;10.00;99.90;;;;;;4196123;28;20240;-70
2022/05/17 01:33:04;;;;;;;5.47;3.30;;;10.10;99.90;;;;;;4196130;28;20169;-69
2022/05/17 01:35:05;;;;;;;5.87;3.33;;;10.10;99.90;;;;;;4196000;28;20253;-70
2022/05/17 01:37:06;;;;;;;4.53;3.10;;;10.10;99.90;;;;;;4195756;28;20273;-70
2022/05/17 01:39:07;;;;;;;5.63;3.47;;;10.10;99.90;;;;;;4195593;28;20168;-69
2022/05/17 01:41:09;;;;;;;5.27;2.77;;;10.10;99.90;;;;;;4196017;28;20264;-70
2022/05/17 01:43:09;;;;;;;4.03;3.00;;;10.00;99.90;;;;;;4195696;28;20648;-71
2022/05/17 01:45:11;;;;;;;4.83;3.27;;;9.90;99.90;;;;;;4195845;28;20278;-69
2022/05/17 01:47:13;;;;;;;4.90;3.33;;;9.90;99.90;;;;;;4195672;28;20275;-70
2022/05/17 01:49:14;;;;;;;5.33;3.87;;;9.90;99.90;;;;;;4196102;28;20183;-70
2022/05/17 01:51:15;;;;;;;6.27;3.30;;;9.90;99.90;;;;;;4195871;28;20219;-70
2022/05/17 01:53:16;;;;;;;5.43;3.77;;;9.90;99.90;;;;;;4196064;28;20259;-70
2022/05/17 01:55:16;;;;;;;7.10;3.37;;;9.90;99.90;;;;;;4195690;28;20198;-69
2022/05/17 01:57:17;;;;;;;4.17;3.10;;;9.90;99.90;;;;;;4195754;28;20352;-69
2022/05/17 01:59:17;;;;;;;8.23;4.03;;;9.90;99.90;;;;;;4196040;28;20187;-70
2022/05/17 02:01:18;;;;;;;5.50;3.63;;;10.00;99.90;;;;;;4196187;28;20207;-70
2022/05/17 02:03:19;;;;;;;7.13;3.30;;;10.00;99.90;;;;;;4195770;28;20247;-70
2022/05/17 02:05:21;;;;;;;4.70;3.67;;;10.00;99.90;;;;;;4195352;28;20190;-70
2022/05/17 02:07:21;;;;;;;6.93;3.90;;;10.10;99.90;;;;;;4189069;28;20645;-69
2022/05/17 02:09:22;;;;;;;6.93;3.63;;;10.00;99.90;;;;;;4195262;28;20191;-69
2022/05/17 02:11:22;;;;;;;6.63;3.27;;;10.00;99.90;;;;;;4195380;28;20592;-70
2022/05/17 02:13:23;;;;;;;5.43;4.03;;;10.00;99.90;;;;;;4195615;28;20275;-70
2022/05/17 02:15:25;;;;;;;6.37;3.73;;;9.90;99.90;;;;;;4195025;28;20640;-70
2022/05/17 02:17:26;;;;;;;4.53;3.53;;;9.90;99.90;;;;;;4195687;28;20201;-69
2022/05/17 02:19:29;;;;;;;5.87;3.33;;;9.90;99.90;;;;;;4195254;28;20425;-70
2022/05/17 02:21:30;;;;;;;6.57;3.73;;;9.80;99.90;;;;;;4160131;28;1027495;-70
2022/05/17 02:23:31;;;;;;;6.57;3.13;;;9.80;99.90;;;;;;4195134;28;20608;-69
2022/05/17 02:25:31;;;;;;;4.53;3.30;;;9.80;99.90;;;;;;4195457;28;20653;-69
2022/05/17 02:27:32;;;;;;;4.70;3.20;;;9.80;99.90;;;;;;4195782;28;20274;-69
2022/05/17 02:29:32;;;;;;;4.87;3.60;;;9.80;99.90;;;;;;4196489;28;20200;-70
2022/05/17 02:31:34;;;;;;;5.77;3.53;;;9.70;99.90;;;;;;4196435;28;20243;-70
2022/05/17 02:33:34;;;;;;;4.30;3.43;;;9.60;99.90;;;;;;4196336;28;20677;-69
2022/05/17 02:35:35;;;;;;;4.90;2.77;;;9.60;99.90;;;;;;4195690;28;20301;-70
2022/05/17 02:37:36;;;;;;;5.47;3.47;;;9.50;99.90;;;;;;4196100;28;20269;-70
2022/05/17 02:39:36;;;;;;;5.27;3.77;;;9.50;99.90;;;;;;4196305;28;20178;-70
2022/05/17 02:41:37;;;;;;;4.50;3.60;;;9.50;99.90;;;;;;4196167;28;20568;-69
2022/05/17 02:43:37;;;;;;;6.37;3.47;;;9.60;99.90;;;;;;4196030;28;20182;-70
2022/05/17 02:45:38;;;;;;;5.83;3.10;;;9.50;99.90;;;;;;4195477;28;20189;-69
2022/05/17 02:47:39;;;;;;;5.27;3.30;;;9.50;99.90;;;;;;4195862;28;20280;-69
2022/05/17 02:49:40;;;;;;;5.53;3.73;;;9.60;99.90;;;;;;4196207;28;20184;-70
2022/05/17 02:51:41;;;;;;;7.30;3.90;;;9.60;99.90;;;;;;4195126;28;20226;-69
2022/05/17 02:53:42;;;;;;;5.17;3.30;;;9.60;99.90;;;;;;4195822;28;20412;-70
2022/05/17 02:55:42;;;;;;;5.20;4.23;;;9.60;99.90;;;;;;4195238;28;20176;-69
2022/05/17 02:57:43;;;;;;;4.80;3.37;;;9.60;99.90;;;;;;4195830;28;21051;-69
2022/05/17 02:59:43;;;;;;;5.37;3.80;;;9.60;99.90;;;;;;4195802;28;20207;-69
2022/05/17 03:01:45;;;;;;;4.33;3.33;;;9.60;99.90;;;;;;4195798;28;20212;-70
2022/05/17 03:03:46;;;;;;;5.97;3.17;;;9.70;99.90;;;;;;4195830;28;20180;-70
2022/05/17 03:05:46;;;;;;;6.07;3.70;;;9.60;99.90;;;;;;4195343;28;20473;-69
2022/05/17 03:07:48;;;;;;;4.80;3.03;;;9.50;99.90;;;;;;4196275;28;20183;-69
2022/05/17 03:09:48;;;;;;;7.00;3.43;;;9.60;99.90;;;;;;4198217;28;20259;-70
2022/05/17 03:11:49;;;;;;;6.20;3.53;;;9.70;99.90;;;;;;4197721;28;20219;-69
2022/05/17 03:13:50;;;;;;;5.93;2.93;;;9.70;99.90;;;;;;4197740;28;20173;-69
2022/05/17 03:15:51;;;;;;;5.07;3.27;;;9.70;99.90;;;;;;4197532;28;20190;-69
2022/05/17 03:17:52;;;;;;;4.60;3.10;;;9.80;99.90;;;;;;4197869;28;20174;-70
2022/05/17 03:19:56;;;;;;;3.47;2.67;;;9.80;99.90;;;;;;4197804;28;20597;-69
2022/05/17 03:21:56;;;;;;;4.03;2.87;;;9.80;99.90;;;;;;4198181;28;20305;-70
2022/05/17 03:23:57;;;;;;;3.47;2.93;;;9.90;99.90;;;;;;4198246;28;20543;-68
2022/05/17 03:25:57;;;;;;;4.80;3.20;;;10.00;99.90;;;;;;4197242;28;20193;-70
2022/05/17 03:27:58;;;;;;;5.57;3.30;;;9.90;99.90;;;;;;4198018;28;20192;-69
2022/05/17 03:29:59;;;;;;;5.00;3.77;;;9.80;99.90;;;;;;4198131;28;20688;-70
2022/05/17 03:32:00;;;;;;;6.33;3.30;;;9.70;99.90;;;;;;4198431;28;20213;-70
2022/05/17 03:34:01;;;;;;;6.83;3.03;;;9.70;99.90;;;;;;4197367;28;20727;-69
2022/05/17 03:36:02;;;;;;;5.67;3.60;;;9.70;99.90;;;;;;4195864;28;20236;-69
2022/05/17 03:38:03;;;;;;;6.27;3.20;;;9.60;99.90;;;;;;4196993;28;20684;-69
2022/05/17 03:40:04;;;;;;;4.87;3.07;;;9.60;99.90;;;;;;4197406;28;20421;-69
2022/05/17 03:42:09;;;;;;;7.17;3.17;;;9.60;99.90;;;;;;4197793;28;20682;-69
2022/05/17 03:44:09;;;;;;;8.20;3.80;;;9.60;99.90;;;;;;4197718;28;20421;-70
2022/05/17 03:46:10;;;;;;;5.87;3.60;;;9.60;99.90;;;;;;4196752;28;20187;-69
2022/05/17 03:48:11;;;;;;;5.20;3.50;;;9.60;99.90;;;;;;4197940;28;20204;-69
2022/05/17 03:50:13;;;;;;;5.27;2.90;;;9.70;99.90;;;;;;4197986;28;20198;-69
2022/05/17 03:52:14;;;;;;;6.17;3.37;;;9.70;99.90;;;;;;4197802;28;20190;-69
2022/05/17 03:54:19;;;;;;;5.10;3.50;;;9.80;99.90;;;;;;4196466;28;20189;-69
2022/05/17 03:56:19;;;;;;;3.30;2.90;;;9.70;99.90;;;;;;4197329;28;20632;-69
2022/05/17 03:58:20;;;;;;;3.50;3.03;;;9.90;99.90;;;;;;4197875;28;20187;-70
2022/05/17 04:00:20;;;;;;;5.27;3.20;;;10.00;99.90;;;;;;4197851;28;20658;-69
2022/05/17 04:02:22;;;;;;;6.97;3.07;;;10.00;99.90;;;;;;4196743;28;20202;-70
2022/05/17 04:04:22;;;;;;;4.67;2.97;;;10.00;99.90;;;;;;4197719;28;20181;-69
2022/05/17 04:06:23;;;;;;;4.10;3.03;;;9.90;99.90;;;;;;4197105;28;20173;-70
2022/05/17 04:08:24;;;;;;;4.77;3.03;;;10.00;99.90;;;;;;4196132;28;20178;-69
2022/05/17 04:10:24;;;;;;;3.93;2.90;;;10.00;99.90;;;;;;4197503;28;20665;-70
2022/05/17 04:12:25;;;;;;;5.40;2.70;;;10.00;99.90;;;;;;4197645;28;20193;-69
2022/05/17 04:14:25;;;;;;;3.30;2.67;;;10.00;99.90;;;;;;4197524;28;20182;-69
2022/05/17 04:16:31;;;;;;;4.03;2.40;;;10.00;99.90;;;;;;4196119;28;20182;-69
2022/05/17 04:18:32;;;;;;;4.83;2.63;;;10.00;99.90;;;;;;4189430;28;20194;-69
2022/05/17 04:20:33;;;;;;;4.43;2.83;;;10.10;99.90;;;;;;4197136;28;20203;-69
2022/05/17 04:22:33;;;;;;;5.90;2.90;;;10.10;99.90;;;;;;4197756;28;20576;-69
2022/05/17 04:24:34;;;;;;;3.00;2.50;;;10.20;99.90;;;;;;4195958;28;20185;-69
2022/05/17 04:26:35;;;;;;;3.90;3.07;;;10.20;99.90;;;;;;4196376;28;20197;-69
2022/05/17 04:28:37;;;;;;;4.07;2.47;;;10.30;99.90;;;;;;4197690;28;20195;-70
2022/05/17 04:30:37;;;;;;;7.57;2.70;;;10.30;99.90;;;;;;4197668;28;20210;-69
2022/05/17 04:32:37;;;;;;;4.73;2.63;;;10.30;99.90;;;;;;4197555;28;20195;-69
2022/05/17 04:34:38;;;;;;;5.03;2.60;;;10.40;99.90;;;;;;4197380;28;20257;-69
2022/05/17 04:36:38;;;;;;;4.63;3.00;;;10.40;99.90;;;;;;4212067;28;20194;-69
2022/05/17 04:38:39;;;;;;;5.00;2.97;;;10.40;99.90;;;;;;4197236;28;20257;-70
2022/05/17 04:40:41;;;;;;;4.63;2.87;;;10.40;99.90;;;;;;4195410;28;20613;-69
2022/05/17 04:42:43;;;;;;;4.27;2.50;;;10.60;99.90;;;;;;4196746;28;20269;-69
2022/05/17 04:44:43;;;;;;;4.57;2.40;;;10.70;99.90;;;;;;4197316;28;20194;-69
2022/05/17 04:46:44;;;;;;;5.93;2.77;;;10.80;99.90;;;;;;4196837;28;20205;-70
2022/05/17 04:48:45;;;;;;;3.17;2.47;;;10.90;99.90;;;;;;4197680;28;20214;-69
2022/05/17 04:50:45;;;;;;;2.83;2.30;;;11.00;99.90;;;;;;4197331;28;20381;-69
2022/05/17 04:52:47;;;;;;;5.33;2.50;;;11.00;99.90;;;;;;4197265;28;20262;-70
2022/05/17 04:54:48;;;;;;;4.43;2.37;;;11.00;99.90;;;;;;4197318;28;20262;-70
2022/05/17 04:56:48;;;;;;;4.43;2.03;;;11.20;99.90;;;;;;4196528;28;20171;-70
2022/05/17 04:58:49;;;;;;;3.47;2.23;;;11.30;99.90;;;;;;4197253;28;20180;-69
2022/05/17 05:00:49;;;;;;;4.93;2.57;;;11.40;99.90;;;;;;4197166;28;20203;-69
2022/05/17 05:02:50;;;;;;;5.23;2.53;;;11.50;99.90;;;;;;4196948;28;20188;-69
2022/05/17 05:04:51;;;;;;;3.00;2.20;;;11.60;99.90;;;;;;4197253;28;20171;-69
2022/05/17 05:06:52;;;;;;;3.53;2.73;;;11.80;99.90;;;;;;4196338;28;20210;-70
2022/05/17 05:08:52;;;;;;;6.20;2.87;;;11.90;99.90;;;;;;4197452;28;20180;-69
2022/05/17 05:10:53;;;;;;;4.17;2.80;;;11.90;99.90;;;;;;4197156;28;20254;-70
2022/05/17 05:12:54;;;;;;;4.80;2.67;;;11.90;99.90;;;;;;4197254;28;20180;-69
2022/05/17 05:14:54;;;;;;;2.70;2.40;;;12.00;99.90;;;;;;4198932;28;20188;-70
2022/05/17 05:16:55;;;;;;;3.70;2.43;;;12.20;99.90;;;;;;4199346;28;20339;-70
2022/05/17 05:18:55;;;;;;;3.90;2.60;;;12.20;99.90;;;;;;4200049;28;20442;-69
2022/05/17 05:21:11;;;;;;;8.20;2.83;;;12.40;99.90;;;;;;4198812;28;20282;-70
2022/05/17 05:23:12;;;;;;;4.17;2.67;;;12.70;99.90;;;;;;4200052;28;20195;-69
2022/05/17 05:25:14;;;;;;;5.83;2.70;;;12.80;99.90;;;;;;4199882;28;20183;-70
2022/05/17 05:27:14;;;;;;;3.53;2.10;;;12.90;99.90;;;;;;4199574;28;20179;-69
2022/05/17 05:29:16;;;;;;;5.43;2.73;;;13.00;99.90;;;;;;4199554;28;20198;-70
2022/05/17 05:31:17;;;;;;;3.50;2.40;;;13.40;99.90;;;;;;4198033;28;20231;-70
2022/05/17 05:33:17;;;;;;;4.27;2.53;;;13.50;99.90;;;;;;4197018;28;20258;-69
2022/05/17 05:35:24;;;;;;;4.90;2.43;;;13.70;99.90;;;;;;4196754;28;20176;-70
2022/05/17 05:37:25;;;;;;;3.13;2.03;;;13.80;99.90;;;;;;4195710;28;20156;-70
2022/05/17 05:39:25;;;;;;;4.53;2.30;;;13.80;99.90;;;;;;4196830;28;20194;-70
2022/05/17 05:41:26;;;;;;;2.90;2.40;;;13.90;99.90;;;;;;4196854;28;20195;-69
2022/05/17 05:43:26;;;;;;;3.97;2.10;;;14.20;99.90;;;;;;4196915;28;20524;-69
2022/05/17 05:45:27;;;;;;;3.07;2.10;;;14.30;99.50;;;;;;4196138;28;20723;-69
2022/05/17 05:47:27;;;;;;;3.27;1.97;;;14.40;98.40;;;;;;4196734;28;20218;-70
2022/05/17 05:49:28;;;;;;;3.93;2.50;;;14.40;99.00;;;;;;4196761;28;20219;-69
2022/05/17 05:51:28;;;;;;;3.17;2.27;;;14.60;97.90;;;;;;4196580;28;20608;-70
2022/05/17 05:53:29;;;;;;;5.37;2.60;;;14.80;97.70;;;;;;4196706;28;20789;-69
2022/05/17 05:55:29;;;;;;;3.50;2.40;;;14.80;97.10;;;;;;4196384;28;20690;-70
2022/05/17 05:57:30;;;;;;;3.37;2.07;;;14.90;96.60;;;;;;4196458;28;20259;-71
2022/05/17 05:59:31;;;;;;;4.23;2.30;;;15.10;96.40;;;;;;4196366;28;20183;-69
2022/05/17 06:01:32;;;;;;;3.33;2.50;;;15.30;96.60;;;;;;4211698;28;20195;-70
2022/05/17 06:03:34;;;;;;;3.30;2.30;;;15.50;96.30;;;;;;4196557;28;20184;-70
2022/05/17 06:05:36;;;;;;;3.17;2.10;;;15.40;96.60;;;;;;4196258;28;20183;-69
2022/05/17 06:07:37;;;;;;;5.03;2.40;;;15.50;96.50;;;;;;4196465;28;20792;-69
2022/05/17 06:09:37;;;;;;;3.57;2.20;;;15.60;96.00;;;;;;4196479;28;20208;-69
2022/05/17 06:11:38;;;;;;;2.70;2.20;;;15.60;96.40;;;;;;4195743;28;20252;-69
2022/05/17 06:13:39;;;;;;;2.70;2.13;;;15.50;97.10;;;;;;4196445;28;20708;-70
2022/05/17 06:15:39;;;;;;;2.20;1.90;;;15.50;98.00;;;;;;4195681;28;20294;-70
2022/05/17 06:17:41;;;;;;;2.43;2.13;;;15.70;97.60;;;;;;4196342;28;20203;-69
2022/05/17 06:19:41;;;;;;;5.83;1.97;;;15.80;97.30;;;;;;4196396;28;20982;-70
2022/05/17 06:21:42;;;;;;;2.30;1.97;;;15.80;97.30;;;;;;4196110;28;20223;-69
2022/05/17 06:23:43;;;;;;;3.30;2.50;;;16.00;96.80;;;;;;4195690;28;20175;-70
2022/05/17 06:25:43;;;;;;;4.33;2.50;;;16.00;96.10;;;;;;4194370;28;20211;-71
2022/05/17 06:27:44;;;;;;;4.30;2.43;;;16.10;96.60;;;;;;4196090;28;20180;-69
2022/05/17 06:29:45;;;;;;;2.97;2.30;;;16.20;96.60;;;;;;4190938;28;20191;-72
2022/05/17 06:31:45;;;;;;;5.10;2.63;;;16.40;97.10;;;;;;4186641;28;20207;-74
2022/05/17 06:33:46;;;;;;;2.17;1.80;;;16.70;94.30;;;;;;4191468;28;20684;-73
2022/05/17 06:35:48;;;;;;;2.80;1.83;;;17.00;94.40;;;;;;4191022;28;20164;-74
2022/05/17 06:37:49;;;;;;;3.87;2.60;;;17.20;93.40;;;;;;4192435;28;20259;-72
2022/05/17 06:39:49;;;;;;;3.80;2.60;;;17.40;90.90;;;;;;4190410;28;20214;-71
2022/05/17 06:41:51;;;;;;;2.60;2.27;;;17.30;88.00;;;;;;4192900;28;20204;-70
2022/05/17 06:43:52;;;;;;;3.70;2.03;;;17.60;85.40;;;;;;4191234;28;20183;-74
2022/05/17 06:45:52;;;;;;;6.03;2.63;;;17.70;89.10;;;;;;4189641;28;20176;-70
2022/05/17 06:47:53;;;;;;;5.00;2.77;;;17.70;88.90;;;;;;4196630;28;20271;-73
2022/05/17 06:49:54;;;;;;;4.63;2.10;;;17.80;88.80;;;;;;4194225;28;20176;-71
2022/05/17 06:51:57;;;;;;;7.83;2.83;;;18.00;82.20;;;;;;4195274;28;20215;-71
2022/05/17 06:53:57;;;;;;;6.67;2.67;;;18.30;79.10;;;;;;4195258;28;20176;-71
2022/05/17 06:55:58;;;;;;;4.17;2.50;;;18.60;75.40;;;;;;4194615;28;20179;-73
2022/05/17 06:57:58;;;;;;;5.40;2.33;;;18.50;76.40;;;;;;4195178;28;20179;-73
2022/05/17 06:59:59;;;;;;;3.10;2.23;;;18.60;73.60;;;;;;4195251;28;20182;-73
2022/05/17 07:02:00;;;;;;;4.77;2.20;;;18.50;76.50;;;;;;4195536;28;20749;-76
2022/05/17 07:04:01;;;;;;;5.70;2.70;;;18.70;76.10;;;;;;4195187;28;20270;-74
2022/05/17 07:06:02;;;;;;;3.43;2.47;;;18.40;69.90;;;;;;4193285;28;20180;-71
2022/05/17 07:08:03;;;;;;;3.17;2.70;;;18.40;71.30;;;;;;4195068;28;20658;-73
2022/05/17 07:14:43;;;;;;;4.00;2.90;;;18.10;74.10;;;;;;4194942;28;20164;-71
2022/05/17 07:16:43;;;;;;;5.10;2.60;;;18.30;74.40;;;;;;4194423;28;20183;-74
2022/05/17 07:18:44;;;;;;;4.00;2.60;;;18.40;73.60;;;;;;4194960;28;20179;-76
2022/05/17 07:20:45;;;;;;;4.83;2.90;;;18.50;76.80;;;;;;4194660;28;20286;-75
2022/05/17 07:22:46;;;;;;;5.33;2.83;;;18.40;77.40;;;;;;4194723;28;20180;-72
2022/05/17 07:24:47;;;;;;;3.33;2.60;;;18.50;72.50;;;;;;4194944;28;20314;-73
2022/05/17 07:26:47;;;;;;;3.27;2.73;;;18.40;71.30;;;;;;4194324;28;20194;-73
2022/05/17 07:28:48;;;;;;;3.70;2.70;;;18.00;71.60;;;;;;4194901;28;20179;-72
2022/05/17 07:30:50;;;;;;;5.67;2.90;;;18.20;73.10;;;;;;4194797;28;20277;-72
2022/05/17 07:32:51;;;;;;;4.03;2.57;;;18.20;71.40;;;;;;4195051;28;20248;-73
2022/05/17 07:34:51;;;;;;;4.50;3.00;;;18.40;74.70;;;;;;4195346;28;20292;-73
2022/05/17 07:36:52;;;;;;;3.07;2.77;;;18.60;70.80;;;;;;4194259;28;20302;-72
2022/05/17 07:38:52;;;;;;;5.37;2.97;;;18.60;74.80;;;;;;4195211;28;20199;-68
2022/05/17 07:40:53;;;;;;;6.03;2.90;;;18.70;68.90;;;;;;4196597;28;20866;-72
2022/05/17 07:42:54;;;;;;;4.63;2.70;;;18.80;68.60;;;;;;4195184;28;20184;-72
2022/05/17 07:44:55;;;;;;;4.43;2.60;;;19.10;66.70;;;;;;4194964;28;20190;-72
2022/05/17 07:46:55;;;;;;;3.27;2.40;;;19.10;66.00;;;;;;4194171;28;20186;-72
2022/05/17 07:48:56;;;;;;;3.80;2.53;;;18.90;66.90;;;;;;4194860;28;20191;-72
2022/05/17 07:50:56;;;;;;;6.20;2.40;;;18.70;67.90;;;;;;4195884;28;20682;-73
2022/05/17 07:52:57;;;;;;;5.40;2.60;;;18.80;69.70;;;;;;4196573;28;20210;-70
2022/05/17 07:54:59;;;;;;;3.10;2.30;;;18.90;67.10;;;;;;4195119;28;20219;-70
2022/05/17 07:57:00;;;;;;;3.57;2.60;;;18.80;68.20;;;;;;4194120;28;20172;-71
2022/05/17 07:59:00;;;;;;;4.63;2.27;;;18.80;67.90;;;;;;4194755;28;20179;-72
2022/05/17 08:01:04;;;;;;;2.87;2.30;;;18.60;68.20;;;;;;4194683;28;20217;-72
2022/05/17 08:03:05;;;;;;;2.43;2.20;;;18.80;67.20;;;;;;4194780;28;20709;-72
2022/05/17 08:05:06;;;;;;;4.43;2.73;;;19.20;66.30;;;;;;4194269;28;20175;-71
2022/05/17 08:07:08;;;;;;;5.33;2.40;;;19.40;68.50;;;;;;4194506;28;20898;-72
2022/05/17 08:09:09;;;;;;;4.03;2.10;;;19.10;66.80;;;;;;4194729;28;20194;-71
2022/05/17 08:11:09;;;;;;;5.43;2.43;;;19.40;67.10;;;;;;4192973;28;20258;-70
2022/05/17 08:13:10;;;;;;;5.30;3.10;;;19.70;65.20;;;;;;4194533;28;20193;-71
2022/05/17 08:15:11;;;;;;;5.30;2.70;;;19.70;64.20;;;;;;4194064;28;20212;-71
2022/05/17 08:17:12;;;;;;;6.37;3.30;;;19.40;65.30;;;;;;4194052;28;20568;-73
2022/05/17 08:19:12;;;;;;;3.53;2.70;;;19.60;63.80;;;;;;4194397;28;20199;-72
2022/05/17 08:21:13;;;;;;;3.80;2.57;;;19.40;64.30;;;;;;4192730;28;20234;-75
2022/05/17 08:23:13;;;;;;;4.73;2.57;;;19.20;65.60;;;;;;4194127;28;20183;-72
2022/05/17 08:27:38;;;;;;;5.83;2.90;;;19.70;65.60;;;;;;4193883;28;20171;-76
2022/05/17 08:29:38;;;;;;;3.53;2.33;;;19.30;65.20;;;;;;4194265;28;20179;-70
2022/05/17 08:31:38;;;;;;;3.87;2.80;;;19.60;64.60;;;;;;4193452;28;20283;-72
2022/05/17 08:33:39;;;;;;;7.07;2.70;;;19.90;63.00;;;;;;4193909;28;20207;-71
2022/05/17 08:35:44;;;;;;;4.57;2.60;;;20.20;63.60;;;;;;4193210;28;20188;-71
2022/05/17 08:37:44;;;;;;;2.87;2.10;;;20.20;64.00;;;;;;4193898;28;20171;-72
2022/05/17 08:39:45;;;;;;;4.27;2.20;;;19.90;62.50;;;;;;4194132;28;20210;-73
2022/05/17 08:41:53;;;;;;;6.37;2.70;;;20.00;63.60;;;;;;4194020;28;20196;-70
2022/05/17 08:43:59;;;;;;;5.10;2.80;;;20.00;62.80;;;;;;4194170;28;20175;-74
2022/05/17 08:46:17;;;;;;;3.67;2.13;;;20.40;61.30;;;;;;4193347;28;20689;-73
2022/05/17 08:48:19;;;;;;;4.60;2.10;;;20.10;59.90;;;;;;4194232;28;20246;-73
2022/05/17 08:50:25;;;;;;;4.63;2.07;;;20.10;61.20;;;;;;4196717;28;20210;-72
2022/05/17 08:52:28;;;;;;;3.73;2.17;;;20.20;61.30;;;;;;4197186;28;20298;-73
2022/05/17 08:54:41;;;;;;;5.10;2.60;;;20.00;60.30;;;;;;4197130;28;20236;-73
2022/05/17 08:56:47;;;;;;;3.40;2.07;;;19.80;61.80;;;;;;4196628;28;20251;-71
2022/05/17 08:58:51;;;;;;;3.37;2.23;;;20.00;62.00;;;;;;4197354;28;20658;-70
2022/05/17 09:01:06;;;;;;;4.67;2.10;;;19.80;61.30;;;;;;4196915;28;20640;-72
2022/05/17 09:03:53;;;;;;;6.97;2.60;;;19.60;61.30;;;;;;4197043;28;20158;-73
2022/05/17 09:05:59;;;;;;;4.90;2.10;;;19.80;63.50;;;;;;4196493;28;20167;-72
2022/05/17 09:08:18;;;;;;;3.87;2.20;;;20.00;60.10;;;;;;4196840;28;20180;-76
2022/05/17 09:10:35;;;;;;;4.93;2.20;;;20.40;59.10;;;;;;4197934;28;20219;-74
2022/05/17 09:12:41;;;;;;;3.90;2.10;;;20.50;58.40;;;;;;4209748;28;20187;-71
2022/05/17 09:14:47;;;;;;;5.33;2.10;;;20.50;59.10;;;;;;4199656;28;20214;-71
2022/05/17 09:16:53;;;;;;;6.13;2.03;;;20.40;58.60;;;;;;4199030;28;20172;-72
2022/05/17 09:18:54;;;;;;;8.40;2.30;;;20.90;57.50;;;;;;4211969;28;20174;-71
2022/05/17 09:20:54;;;;;;;4.10;2.27;;;21.30;56.30;;;;;;4197686;28;20314;-71
2022/05/17 09:22:55;;;;;;;5.83;2.10;;;21.80;56.40;;;;;;4212122;28;20241;-72
2022/05/17 09:25:00;;;;;;;6.63;2.20;;;22.00;52.80;;;;;;4196188;28;20180;-71
2022/05/17 09:27:07;;;;;;;2.40;1.83;;;22.10;52.80;;;;;;4212477;28;20186;-72
2022/05/17 09:29:27;;;;;;;3.97;1.87;;;22.30;50.30;;;;;;4181074;28;20714;-71
2022/05/17 09:31:32;;;;;;;4.07;2.10;;;22.60;50.20;;;;;;4209644;28;20749;-72
2022/05/17 09:33:33;;;;;;;5.40;2.30;;;22.70;50.20;;;;;;4199259;28;20167;-72
2022/05/17 09:35:42;;;;;;;3.97;2.13;;;22.70;50.70;;;;;;4208254;28;20179;-71
2022/05/17 09:37:49;;;;;;;4.37;1.90;;;22.60;48.20;;;;;;4201720;28;20262;-70
2022/05/17 09:39:52;;;;;;;5.40;1.87;;;22.20;49.50;;;;;;4206662;28;20176;-72
2022/05/17 09:41:57;;;;;;;4.60;2.23;;;22.10;53.00;;;;;;4202958;28;20621;-73
2022/05/17 09:44:04;;;;;;;3.23;2.20;;;21.80;52.80;;;;;;4205674;28;20176;-71
2022/05/17 09:46:10;;;;;;;4.97;1.87;;;22.80;52.10;;;;;;4197532;28;20191;-71
2022/05/17 09:48:13;;;;;;;6.20;2.20;;;22.90;49.80;;;;;;4205561;28;20574;-71
2022/05/17 09:52:45;;;;;;;4.73;1.60;;;22.30;49.40;;;;;;4200968;28;20218;-71
2022/05/17 09:54:47;;;;;;;2.17;1.63;;;22.80;49.00;;;;;;4210439;28;20193;-70
2022/05/17 09:56:48;;;;;;;2.93;2.10;;;23.10;46.90;;;;;;4197799;28;20183;-73
2022/05/17 09:58:48;;;;;;;5.77;1.60;;;23.40;45.90;;;;;;4196112;28;20184;-72
2022/05/17 10:00:51;;;;;;;2.67;1.70;;;24.10;43.80;;;;;;4210407;28;20195;-72
2022/05/17 10:02:56;;;;;;;2.17;1.60;;;24.40;41.70;;;;;;4196480;28;20266;-72
2022/05/17 10:04:58;;;;;;;3.47;1.90;;;24.40;43.70;;;;;;4211789;28;20193;-71
2022/05/17 10:06:58;;;;;;;4.10;1.83;;;24.10;43.50;;;;;;4196109;28;20190;-73
2022/05/17 10:09:03;;;;;;;5.10;2.03;;;23.90;44.60;;;;;;4210537;28;20183;-71
2022/05/17 10:11:03;;;;;;;3.10;1.90;;;22.90;45.60;;;;;;4195367;28;20291;-70
2022/05/17 10:13:32;;;;;;;4.07;2.03;;;23.20;45.50;;;;;;4193499;28;20280;-72
2022/05/17 10:15:37;;;;;;;3.17;1.70;;;23.30;46.90;;;;;;4208139;28;20232;-70
2022/05/17 10:17:44;;;;;;;3.77;1.87;;;23.30;44.00;;;;;;4195245;28;20208;-72
2022/05/17 10:19:49;;;;;;;3.63;1.87;;;23.30;45.00;;;;;;4201436;28;20183;-73
2022/05/17 10:22:16;;;;;;;3.10;1.80;;;22.90;47.00;;;;;;4205780;28;20697;-73
2022/05/17 10:24:20;;;;;;;2.20;1.90;;;22.90;46.00;;;;;;4206003;28;20174;-71
2022/05/17 10:26:29;;;;;;;2.53;1.83;;;22.70;47.00;;;;;;4201126;28;20562;-72
2022/05/17 10:29:06;;;;;;;3.57;1.67;;;22.00;49.30;;;;;;4207592;28;20182;-73
2022/05/17 10:31:31;;;;;;;4.33;2.20;;;22.20;47.80;;;;;;4157188;28;20220;-73
2022/05/17 10:33:51;;;;;;;4.80;1.80;;;22.20;48.80;;;;;;4201422;28;20240;-73
2022/05/17 10:36:01;;;;;;;2.00;1.80;;;22.20;47.50;;;;;;4201511;28;20207;-72
2022/05/17 10:38:10;;;;;;;2.10;1.60;;;22.50;46.10;;;;;;4204573;28;20196;-72
2022/05/17 10:40:17;;;;;;;3.90;1.80;;;22.70;44.60;;;;;;4193921;28;20685;-73
2022/05/17 10:42:18;;;;;;;3.00;1.60;;;22.40;45.40;;;;;;4196037;28;20199;-72
2022/05/17 10:44:20;;;;;;;2.10;1.50;;;22.80;45.70;;;;;;4205716;28;20183;-74
2022/05/17 10:46:28;;;;;;;3.70;1.77;;;23.20;44.60;;;;;;4198769;28;20187;-75
2022/05/17 10:48:53;;;;;;;4.33;1.80;;;23.20;44.70;;;;;;4207141;28;20194;-71
2022/05/17 10:51:22;;;;;;;2.40;1.70;;;24.20;44.10;;;;;;4196542;28;20211;-71